createdAt,value
2022-12-01T00:01:10.242Z,16.80
2022-12-01T00:03:37.109Z,16.17
2022-12-01T00:06:17.902Z,16.30
2022-12-01T00:09:06.166Z,15.03
2022-12-01T00:11:34.167Z,15.67
2022-12-01T00:14:01.503Z,15.83
2022-12-01T00:16:28.401Z,16.10
2022-12-01T00:18:55.413Z,14.97
2022-12-01T00:21:24.223Z,15.73
2022-12-01T00:23:53.564Z,15.77
2022-12-01T00:26:21.354Z,15.33
2022-12-01T00:28:58.425Z,15.40
2022-12-01T00:31:26.772Z,15.63
2022-12-01T00:33:54.024Z,15.40
2022-12-01T00:36:21.126Z,14.53
2022-12-01T00:38:47.899Z,15.10
2022-12-01T00:41:14.600Z,15.23
2022-12-01T00:43:41.458Z,15.57
2022-12-01T00:46:08.440Z,14.90
2022-12-01T00:48:35.151Z,15.67
2022-12-01T00:51:01.960Z,14.40
2022-12-01T00:53:28.686Z,15.73
2022-12-01T00:55:55.526Z,14.93
2022-12-01T00:58:23.224Z,15.57
2022-12-01T01:00:51.138Z,14.57
2022-12-01T01:03:17.839Z,14.93
2022-12-01T01:05:44.645Z,15.40
2022-12-01T01:08:13.642Z,15.20
2022-12-01T01:10:45.420Z,15.10
2022-12-01T01:13:13.311Z,15.30
2022-12-01T01:15:40.324Z,16.73
2022-12-01T01:18:07.440Z,15.63
2022-12-01T01:20:34.198Z,15.60
2022-12-01T01:23:01.213Z,16.07
2022-12-01T01:25:28.017Z,15.70
2022-12-01T01:27:54.800Z,15.57
2022-12-01T01:30:21.681Z,16.00
2022-12-01T01:32:48.592Z,16.00
2022-12-01T01:35:15.302Z,15.73
2022-12-01T01:37:42.033Z,17.03
2022-12-01T01:40:09.281Z,15.77
2022-12-01T01:42:35.961Z,16.40
2022-12-01T01:45:03.119Z,16.50
2022-12-01T01:47:34.497Z,15.90
2022-12-01T01:50:06.542Z,16.53
2022-12-01T01:52:40.628Z,17.13
2022-12-01T01:55:07.949Z,17.50
2022-12-01T01:57:34.985Z,17.17
2022-12-01T02:00:08.779Z,16.67
2022-12-01T02:02:44.849Z,17.03
2022-12-01T02:05:18.570Z,16.60
2022-12-01T02:07:46.742Z,16.37
2022-12-01T02:10:14.721Z,15.67
2022-12-01T02:12:56.696Z,15.63
2022-12-01T02:15:48.071Z,16.33
2022-12-01T02:18:26.133Z,15.77
2022-12-01T02:21:05.170Z,16.20
2022-12-01T02:24:03.008Z,17.03
2022-12-01T02:26:32.870Z,16.10
2022-12-01T02:29:31.064Z,16.07
2022-12-01T02:32:10.493Z,16.30
2022-12-01T02:35:01.446Z,16.80
2022-12-01T02:38:03.963Z,15.90
2022-12-01T02:40:36.667Z,16.37
2022-12-01T02:43:12.461Z,16.77
2022-12-01T02:45:52.251Z,17.30
2022-12-01T02:48:31.598Z,15.83
2022-12-01T02:51:06.779Z,16.73
2022-12-01T02:53:34.167Z,16.73
2022-12-01T02:56:01.029Z,16.10
2022-12-01T02:58:27.854Z,16.33
2022-12-01T03:01:22.399Z,16.13
2022-12-01T03:04:21.646Z,16.23
2022-12-01T03:07:19.801Z,15.77
2022-12-01T03:09:55.276Z,16.80
2022-12-01T03:12:59.746Z,16.03
2022-12-01T03:15:38.084Z,16.53
2022-12-01T03:18:38.912Z,17.07
2022-12-01T03:21:28.527Z,16.87
2022-12-01T03:24:00.077Z,15.80
2022-12-01T03:26:29.692Z,16.67
2022-12-01T03:29:00.100Z,16.60
2022-12-01T03:31:32.273Z,16.57
2022-12-01T03:34:18.087Z,17.47
2022-12-01T03:36:52.026Z,16.40
2022-12-01T03:39:26.671Z,16.90
2022-12-01T03:42:04.496Z,16.27
2022-12-01T03:44:35.347Z,16.73
2022-12-01T03:47:04.682Z,16.57
2022-12-01T03:49:31.483Z,17.17
2022-12-01T03:52:16.939Z,17.73
2022-12-01T03:55:01.860Z,16.60
2022-12-01T03:57:35.921Z,17.77
2022-12-01T04:00:04.459Z,17.10
2022-12-01T04:02:39.486Z,17.07
2022-12-01T04:05:06.958Z,17.47
2022-12-01T04:07:33.678Z,18.07
2022-12-01T04:10:00.525Z,17.63
2022-12-01T04:12:30.138Z,17.57
2022-12-01T04:14:57.979Z,17.37
2022-12-01T04:17:25.447Z,16.80
2022-12-01T04:19:52.846Z,18.33
2022-12-01T04:22:19.813Z,17.63
2022-12-01T04:24:46.445Z,16.77
2022-12-01T04:27:13.286Z,17.70
2022-12-01T04:29:39.968Z,19.47
2022-12-01T04:32:07.274Z,18.80
2022-12-01T04:34:34.079Z,18.17
2022-12-01T04:37:00.894Z,18.40
2022-12-01T04:39:27.582Z,18.67
2022-12-01T04:41:54.380Z,20.13
2022-12-01T04:44:21.101Z,18.17
2022-12-01T04:46:47.816Z,19.93
2022-12-01T04:49:14.501Z,19.53
2022-12-01T04:51:41.245Z,18.87
2022-12-01T04:54:07.879Z,19.27
2022-12-01T04:56:34.761Z,20.57
2022-12-01T04:59:01.503Z,18.80
2022-12-01T05:01:28.311Z,17.87
2022-12-01T05:03:55.199Z,19.60
2022-12-01T05:06:24.571Z,18.50
2022-12-01T05:08:52.131Z,18.27
2022-12-01T05:11:19.156Z,19.10
2022-12-01T05:13:47.527Z,18.97
2022-12-01T05:16:28.651Z,19.60
2022-12-01T05:19:16.628Z,20.20
2022-12-01T05:21:45.095Z,19.30
2022-12-01T05:24:13.492Z,20.90
2022-12-01T05:26:41.642Z,19.70
2022-12-01T05:29:08.851Z,19.93
2022-12-01T05:31:35.732Z,21.10
2022-12-01T05:34:02.827Z,19.40
2022-12-01T05:36:29.613Z,19.83
2022-12-01T05:38:56.284Z,20.50
2022-12-01T05:41:23.043Z,18.47
2022-12-01T05:43:49.767Z,19.57
2022-12-01T05:46:16.488Z,20.20
2022-12-01T05:48:43.216Z,19.40
2022-12-01T05:51:11.565Z,19.53
2022-12-01T05:53:38.727Z,19.30
2022-12-01T05:56:06.702Z,20.10
2022-12-01T05:58:33.720Z,19.20
2022-12-01T06:01:00.954Z,19.33
2022-12-01T06:03:27.685Z,19.80
2022-12-01T06:05:54.447Z,20.23
2022-12-01T06:08:21.104Z,18.77
2022-12-01T06:10:47.887Z,20.60
2022-12-01T06:13:14.748Z,20.10
2022-12-01T06:15:41.488Z,18.40
2022-12-01T06:18:08.183Z,18.90
2022-12-01T06:20:34.829Z,18.70
2022-12-01T06:23:01.586Z,19.40
2022-12-01T06:25:28.312Z,20.40
2022-12-01T06:27:58.604Z,19.40
2022-12-01T06:30:25.874Z,18.83
2022-12-01T06:32:52.755Z,18.47
2022-12-01T06:35:19.672Z,19.07
2022-12-01T06:37:46.410Z,18.10
2022-12-01T06:40:13.342Z,19.97
2022-12-01T06:42:40.009Z,18.53
2022-12-01T06:45:07.008Z,19.40
2022-12-01T06:47:33.792Z,19.60
2022-12-01T06:50:00.750Z,18.90
2022-12-01T06:52:28.247Z,19.23
2022-12-01T06:54:54.956Z,18.07
2022-12-01T06:57:22.113Z,18.57
2022-12-01T06:59:49.577Z,17.57
2022-12-01T07:02:17.156Z,18.37
2022-12-01T07:04:47.286Z,19.20
2022-12-01T07:07:14.021Z,18.93
2022-12-01T07:09:40.741Z,18.03
2022-12-01T07:12:07.715Z,18.17
2022-12-01T07:14:34.704Z,18.40
2022-12-01T07:17:01.432Z,17.50
2022-12-01T07:19:28.266Z,18.67
2022-12-01T07:21:54.969Z,18.30
2022-12-01T07:24:21.678Z,18.53
2022-12-01T07:26:48.317Z,18.60
2022-12-01T07:29:15.253Z,18.43
2022-12-01T07:31:41.940Z,18.57
2022-12-01T07:34:11.546Z,17.73
2022-12-01T07:36:38.289Z,17.87
2022-12-01T07:39:06.577Z,18.83
2022-12-01T07:41:33.931Z,17.07
2022-12-01T07:44:01.075Z,18.50
2022-12-01T07:46:28.921Z,17.73
2022-12-01T07:48:56.825Z,18.83
2022-12-01T07:51:24.938Z,18.43
2022-12-01T07:53:53.569Z,18.07
2022-12-01T07:56:21.153Z,18.37
2022-12-01T07:58:47.901Z,18.87
2022-12-01T08:01:18.297Z,18.40
2022-12-01T08:03:45.366Z,17.73
2022-12-01T08:06:12.827Z,18.10
2022-12-01T08:08:40.950Z,19.07
2022-12-01T08:11:16.395Z,17.70
2022-12-01T08:13:43.474Z,18.63
2022-12-01T08:16:14.199Z,18.23
2022-12-01T08:18:42.046Z,17.40
2022-12-01T08:21:13.996Z,17.57
2022-12-01T08:23:42.149Z,18.17
2022-12-01T08:26:12.866Z,17.50
2022-12-01T08:28:40.111Z,17.03
2022-12-01T08:31:14.455Z,16.97
2022-12-01T08:33:41.456Z,14.87
2022-12-01T08:36:08.622Z,17.60
2022-12-01T08:38:35.682Z,17.97
2022-12-01T08:41:04.699Z,17.17
2022-12-01T08:43:56.491Z,16.83
2022-12-01T08:46:18.696Z,16.07
2022-12-01T08:48:45.937Z,16.50
2022-12-01T08:51:18.403Z,17.57
2022-12-01T08:53:47.598Z,17.23
2022-12-01T08:56:17.362Z,17.13
2022-12-01T08:58:44.522Z,17.83
2022-12-01T09:01:15.072Z,17.13
2022-12-01T09:03:42.649Z,17.90
2022-12-01T09:06:13.850Z,17.03
2022-12-01T09:08:41.274Z,16.57
2022-12-01T09:11:11.879Z,18.43
2022-12-01T09:13:39.765Z,17.23
2022-12-01T09:16:09.138Z,16.90
2022-12-01T09:18:36.467Z,16.60
2022-12-01T09:21:14.481Z,17.27
2022-12-01T09:23:43.187Z,16.33
2022-12-01T09:26:13.566Z,16.43
2022-12-01T09:28:53.440Z,16.83
2022-12-01T09:31:26.030Z,16.63
2022-12-01T09:34:07.277Z,16.07
2022-12-01T09:36:40.346Z,16.60
2022-12-01T09:39:11.876Z,17.10
2022-12-01T09:41:48.058Z,16.97
2022-12-01T09:44:45.490Z,15.50
2022-12-01T09:47:40.659Z,15.70
2022-12-01T09:50:15.709Z,15.50
2022-12-01T09:52:47.496Z,15.40
2022-12-01T09:55:16.586Z,16.00
2022-12-01T09:57:44.465Z,15.37
2022-12-01T10:00:16.255Z,15.63
2022-12-01T10:02:49.378Z,14.40
2022-12-01T10:05:20.540Z,16.57
2022-12-01T10:07:50.944Z,15.77
2022-12-01T10:10:29.023Z,15.20
2022-12-01T10:12:55.984Z,14.07
2022-12-01T10:15:46.729Z,14.40
2022-12-01T10:18:29.005Z,14.93
2022-12-01T10:21:08.956Z,14.97
2022-12-01T10:23:51.680Z,14.37
2022-12-01T10:26:29.139Z,14.87
2022-12-01T10:29:28.086Z,14.47
2022-12-01T10:32:03.840Z,14.53
2022-12-01T10:34:42.809Z,14.00
2022-12-01T10:37:24.433Z,14.07
2022-12-01T10:39:58.856Z,13.77
2022-12-01T10:42:42.796Z,14.50
2022-12-01T10:45:28.567Z,13.23
2022-12-01T10:48:18.893Z,14.00
2022-12-01T10:50:57.513Z,12.37
2022-12-01T10:53:24.465Z,13.90
2022-12-01T10:55:58.608Z,13.73
2022-12-01T10:58:26.482Z,13.10
2022-12-01T11:01:00.366Z,13.80
2022-12-01T11:03:31.568Z,13.50
2022-12-01T11:06:03.379Z,12.87
2022-12-01T11:08:54.204Z,13.37
2022-12-01T11:11:31.677Z,12.27
2022-12-01T11:14:01.169Z,12.63
2022-12-01T11:16:38.126Z,13.40
2022-12-01T11:19:32.644Z,13.70
2022-12-01T11:22:02.245Z,13.33
2022-12-01T11:24:45.331Z,13.53
2022-12-01T11:27:23.925Z,12.57
2022-12-01T11:29:55.403Z,13.43
2022-12-01T11:32:26.189Z,13.43
2022-12-01T11:35:06.589Z,12.27
2022-12-01T11:37:38.459Z,13.03
2022-12-01T11:40:18.600Z,12.37
2022-12-01T11:42:57.669Z,13.17
2022-12-01T11:45:29.439Z,13.90
2022-12-01T11:48:00.767Z,12.70
2022-12-01T11:50:31.254Z,12.03
2022-12-01T11:52:57.985Z,12.60
2022-12-01T11:55:27.579Z,12.30
2022-12-01T11:57:57.323Z,12.67
2022-12-01T12:00:30.286Z,11.30
2022-12-01T12:03:06.080Z,13.93
2022-12-01T12:05:49.113Z,12.30
2022-12-01T12:08:40.874Z,13.17
2022-12-01T12:11:24.549Z,12.47
2022-12-01T12:14:11.593Z,12.40
2022-12-01T12:16:57.505Z,13.17
2022-12-01T12:20:07.144Z,13.57
2022-12-01T12:23:31.692Z,11.60
2022-12-01T12:26:11.336Z,11.33
2022-12-01T12:28:50.061Z,12.17
2022-12-01T12:31:35.468Z,12.50
2022-12-01T12:34:23.301Z,12.10
2022-12-01T12:37:02.746Z,11.70
2022-12-01T12:39:49.443Z,12.07
2022-12-01T12:42:39.163Z,12.83
2022-12-01T12:45:30.603Z,11.83
2022-12-01T12:48:03.865Z,13.47
2022-12-01T12:50:43.728Z,13.03
2022-12-01T12:53:16.774Z,13.40
2022-12-01T12:55:46.628Z,13.63
2022-12-01T12:58:20.357Z,13.43
2022-12-01T13:00:52.656Z,13.50
2022-12-01T13:03:35.758Z,13.60
2022-12-01T13:06:13.607Z,13.57
2022-12-01T13:08:46.150Z,13.10
2022-12-01T13:11:22.806Z,13.60
2022-12-01T13:14:13.749Z,13.60
2022-12-01T13:16:42.860Z,12.93
2022-12-01T13:19:21.171Z,13.33
2022-12-01T13:21:50.273Z,14.60
2022-12-01T13:24:24.268Z,15.43
2022-12-01T13:27:00.674Z,14.27
2022-12-01T13:29:29.747Z,14.73
2022-12-01T13:31:56.501Z,14.40
2022-12-01T13:34:34.790Z,15.20
2022-12-01T13:37:01.823Z,15.07
2022-12-01T13:39:36.748Z,14.67
2022-12-01T13:42:07.024Z,15.13
2022-12-01T13:44:42.790Z,13.77
2022-12-01T13:47:12.703Z,14.67
2022-12-01T13:49:48.780Z,15.57
2022-12-01T13:52:16.325Z,15.17
2022-12-01T13:55:08.055Z,15.20
2022-12-01T13:57:52.979Z,16.03
2022-12-01T14:00:27.242Z,14.97
2022-12-01T14:03:15.426Z,15.50
2022-12-01T14:05:42.212Z,15.13
2022-12-01T14:08:24.512Z,15.27
2022-12-01T14:10:59.830Z,15.10
2022-12-01T14:13:29.161Z,14.53
2022-12-01T14:16:01.388Z,23.77
2022-12-01T14:18:35.853Z,14.93
2022-12-01T14:21:05.751Z,15.13
2022-12-01T14:23:34.999Z,14.50
2022-12-01T14:26:11.252Z,15.03
2022-12-01T14:29:05.960Z,14.70
2022-12-01T14:31:32.799Z,16.30
2022-12-01T14:34:07.661Z,15.43
2022-12-01T14:36:48.812Z,16.13
2022-12-01T14:39:35.161Z,16.33
2022-12-01T14:42:13.043Z,15.23
2022-12-01T14:44:47.819Z,15.10
2022-12-01T14:47:27.929Z,15.40
2022-12-01T14:50:11.870Z,14.73
2022-12-01T14:52:47.771Z,15.50
2022-12-01T14:55:37.772Z,15.20
2022-12-01T14:58:07.693Z,15.40
2022-12-01T15:00:37.892Z,15.57
2022-12-01T15:03:13.415Z,15.10
2022-12-01T15:05:42.459Z,15.07
2022-12-01T15:09:25.290Z,16.10
2022-12-01T15:11:26.529Z,15.40
2022-12-01T15:13:54.778Z,15.50
2022-12-01T15:16:29.225Z,15.60
2022-12-01T15:18:56.508Z,14.73
2022-12-01T15:21:26.375Z,14.77
2022-12-01T15:23:59.714Z,15.27
2022-12-01T15:26:33.886Z,15.17
2022-12-01T15:29:24.845Z,16.53
2022-12-01T15:31:59.386Z,14.87
2022-12-01T15:34:37.515Z,16.13
2022-12-01T15:37:08.614Z,15.70
2022-12-01T15:39:37.723Z,16.77
2022-12-01T15:42:04.677Z,15.83
2022-12-01T15:44:37.585Z,15.40
2022-12-01T15:47:32.369Z,16.07
2022-12-01T15:49:59.078Z,15.70
2022-12-01T15:52:26.253Z,17.87
2022-12-01T15:54:53.323Z,15.90
2022-12-01T15:57:21.294Z,16.00
2022-12-01T15:59:53.837Z,15.97
2022-12-01T16:02:23.115Z,16.83
2022-12-01T16:05:25.765Z,16.30
2022-12-01T16:10:41.654Z,15.30
2022-12-01T16:13:42.096Z,16.30
2022-12-01T16:16:31.744Z,16.53
2022-12-01T16:19:07.734Z,15.83
2022-12-01T16:21:48.267Z,17.27
2022-12-01T16:24:17.857Z,16.10
2022-12-01T16:27:05.546Z,15.63
2022-12-01T16:29:44.414Z,16.10
2022-12-01T16:32:21.300Z,15.13
2022-12-01T16:34:52.676Z,16.17
2022-12-01T16:37:21.659Z,15.67
2022-12-01T16:39:48.580Z,15.27
2022-12-01T16:42:17.554Z,15.63
2022-12-01T16:44:48.380Z,14.83
2022-12-01T16:47:24.333Z,14.67
2022-12-01T16:49:52.039Z,15.90
2022-12-01T16:55:25.858Z,16.93
2022-12-01T16:57:52.655Z,15.47
2022-12-01T17:00:21.059Z,15.87
2022-12-01T17:02:48.707Z,16.93
2022-12-01T17:05:15.756Z,16.00
2022-12-01T17:07:42.575Z,17.80
2022-12-01T17:10:09.906Z,15.40
2022-12-01T17:12:36.625Z,17.10
2022-12-01T17:15:04.483Z,16.20
2022-12-01T17:17:34.251Z,16.33
2022-12-01T17:20:00.992Z,17.13
2022-12-01T17:22:28.085Z,16.53
2022-12-01T17:24:55.908Z,16.03
2022-12-01T17:27:27.767Z,17.80
2022-12-01T17:29:55.724Z,16.73
2022-12-01T17:32:22.517Z,17.07
2022-12-01T17:34:50.093Z,18.07
2022-12-01T17:37:20.969Z,18.73
2022-12-01T17:39:48.291Z,16.97
2022-12-01T17:42:15.146Z,17.17
2022-12-01T17:44:42.892Z,17.27
2022-12-01T17:47:09.757Z,16.80
2022-12-01T17:49:36.726Z,17.63
2022-12-01T17:52:04.707Z,16.90
2022-12-01T17:54:31.874Z,18.77
2022-12-01T17:56:58.911Z,17.60
2022-12-01T17:59:26.188Z,17.87
2022-12-01T18:01:53.148Z,18.33
2022-12-01T18:04:20.869Z,19.40
2022-12-01T18:06:53.547Z,19.27
2022-12-01T18:09:21.898Z,19.30
2022-12-01T18:11:49.259Z,19.37
2022-12-01T18:14:19.464Z,18.63
2022-12-01T18:16:47.951Z,18.07
2022-12-01T18:19:14.726Z,17.60
2022-12-01T18:21:41.800Z,18.40
2022-12-01T18:24:09.504Z,19.23
2022-12-01T18:26:38.896Z,18.00
2022-12-01T18:29:15.819Z,19.63
2022-12-01T18:31:42.993Z,19.67
2022-12-01T18:34:11.313Z,18.50
2022-12-01T18:36:40.028Z,18.73
2022-12-01T18:39:09.180Z,19.10
2022-12-01T18:41:36.313Z,18.63
2022-12-01T18:44:04.511Z,18.33
2022-12-01T18:46:31.453Z,19.70
2022-12-01T18:49:02.923Z,20.93
2022-12-01T18:51:32.093Z,19.97
2022-12-01T18:54:00.149Z,20.27
2022-12-01T18:56:27.743Z,18.83
2022-12-01T18:59:02.273Z,18.70
2022-12-01T19:01:44.025Z,18.23
2022-12-01T19:04:12.335Z,19.97
2022-12-01T19:06:40.388Z,20.13
2022-12-01T19:09:10.800Z,20.80
2022-12-01T19:11:38.665Z,21.00
2022-12-01T19:14:05.612Z,19.40
2022-12-01T19:16:33.284Z,20.20
2022-12-01T19:19:02.814Z,19.57
2022-12-01T19:21:29.616Z,20.43
2022-12-01T19:23:56.441Z,19.83
2022-12-01T19:26:24.152Z,21.57
2022-12-01T19:28:51.010Z,20.57
2022-12-01T19:31:22.846Z,18.83
2022-12-01T19:33:50.963Z,19.77
2022-12-01T19:36:20.043Z,20.20
2022-12-01T19:38:47.620Z,20.27
2022-12-01T19:41:15.584Z,20.47
2022-12-01T19:43:43.136Z,20.30
2022-12-01T19:46:18.751Z,20.57
2022-12-01T19:48:45.945Z,21.57
2022-12-01T19:51:25.758Z,19.80
2022-12-01T19:53:53.675Z,21.30
2022-12-01T19:56:21.211Z,21.37
2022-12-01T19:58:48.158Z,20.43
2022-12-01T20:01:16.921Z,20.97
2022-12-01T20:03:48.544Z,21.50
2022-12-01T20:06:20.032Z,22.37
2022-12-01T20:08:47.385Z,20.30
2022-12-01T20:11:14.733Z,21.90
2022-12-01T20:13:43.394Z,21.33
2022-12-01T20:16:16.933Z,22.80
2022-12-01T20:18:44.243Z,22.47
2022-12-01T20:21:16.502Z,21.67
2022-12-01T20:23:58.237Z,21.63
2022-12-01T20:26:30.832Z,21.17
2022-12-01T20:29:06.518Z,21.63
2022-12-01T20:31:34.187Z,21.90
2022-12-01T20:34:04.026Z,21.30
2022-12-01T20:36:30.953Z,21.50
2022-12-01T20:38:58.382Z,20.60
2022-12-01T20:41:25.162Z,22.10
2022-12-01T20:43:51.960Z,23.17
2022-12-01T20:46:18.954Z,20.77
2022-12-01T20:48:46.230Z,22.80
2022-12-01T20:51:14.955Z,22.70
2022-12-01T20:54:05.479Z,22.30
2022-12-01T20:56:35.259Z,21.30
2022-12-01T20:59:02.136Z,22.43
2022-12-01T21:01:29.235Z,21.10
2022-12-01T21:03:56.097Z,23.00
2022-12-01T21:06:23.527Z,21.73
2022-12-01T21:08:51.182Z,22.23
2022-12-01T21:11:42.993Z,21.57
2022-12-01T21:14:16.527Z,22.03
2022-12-01T21:16:48.139Z,22.90
2022-12-01T21:19:20.271Z,23.40
2022-12-01T21:21:47.217Z,22.73
2022-12-01T21:24:19.983Z,23.37
2022-12-01T21:26:57.112Z,23.30
2022-12-01T21:29:29.211Z,22.67
2022-12-01T21:31:59.147Z,22.30
2022-12-01T21:34:27.604Z,23.10
2022-12-01T21:36:57.750Z,22.90
2022-12-01T21:39:25.342Z,22.63
2022-12-01T21:41:53.975Z,23.53
2022-12-01T21:44:22.482Z,23.13
2022-12-01T21:46:53.701Z,23.80
2022-12-01T21:49:22.515Z,24.10
2022-12-01T21:51:50.935Z,23.30
2022-12-01T21:54:20.935Z,22.20
2022-12-01T21:56:48.794Z,23.70
2022-12-01T21:59:23.325Z,23.17
2022-12-01T22:01:55.536Z,23.23
2022-12-01T22:04:24.906Z,22.00
2022-12-01T22:06:53.477Z,24.17
2022-12-01T22:09:23.508Z,23.77
2022-12-01T22:11:58.170Z,23.43
2022-12-01T22:14:29.811Z,23.33
2022-12-01T22:16:59.669Z,22.67
2022-12-01T22:19:42.402Z,23.47
2022-12-01T22:22:12.361Z,23.57
2022-12-01T22:24:46.119Z,23.90
2022-12-01T22:27:31.431Z,23.33
2022-12-01T22:30:07.905Z,23.57
2022-12-01T22:32:47.292Z,21.90
2022-12-01T22:35:24.309Z,23.77
2022-12-01T22:38:00.048Z,23.63
2022-12-01T22:40:41.437Z,21.40
2022-12-01T22:43:18.037Z,22.93
2022-12-01T22:45:49.469Z,24.70
2022-12-01T22:48:25.539Z,22.57
2022-12-01T22:50:52.702Z,23.33
2022-12-01T22:53:26.547Z,24.30
2022-12-01T22:55:57.346Z,24.13
2022-12-01T22:58:38.184Z,22.77
2022-12-01T23:01:17.760Z,23.03
2022-12-01T23:03:44.679Z,23.10
2022-12-01T23:06:48.611Z,23.90
2022-12-01T23:09:15.907Z,23.37
2022-12-01T23:11:45.214Z,23.57
2022-12-01T23:14:17.060Z,23.87
2022-12-01T23:16:47.225Z,23.27
2022-12-01T23:19:14.520Z,23.77
2022-12-01T23:21:47.114Z,22.47
2022-12-01T23:24:16.597Z,21.80
2022-12-01T23:26:49.731Z,22.50
2022-12-01T23:29:27.100Z,22.30
2022-12-01T23:31:58.928Z,23.53
2022-12-01T23:34:31.095Z,23.23
2022-12-01T23:36:57.868Z,23.67
2022-12-01T23:39:33.629Z,22.63
2022-12-01T23:42:00.518Z,20.90
2022-12-01T23:44:43.006Z,23.60
2022-12-01T23:47:22.991Z,23.33
2022-12-01T23:49:55.759Z,21.80
2022-12-01T23:52:34.296Z,23.63
2022-12-01T23:55:06.463Z,24.20
2022-12-01T23:57:33.602Z,22.17
